Time;durP1;ratioP1;P1;durP2;ratioP2;P2;SDS_P1;SDS_P2;PMS_P1;PMS_P2;Temp;Humidity;BMP_temperature;BMP_pressure;BME280_temperature;BME280_humidity;BME280_pressure;Samples;Min_cycle;Max_cycle;Signal;HPM_P1;HPM_P2
2021/01/31 00:00:34;;;;;;;29.55;18.73;;;;;;;2.48;70.31;98278.91;1706451;84;21383;-56
2021/01/31 00:03:17;;;;;;;25.10;16.82;;;;;;;2.50;70.60;98286.72;1706432;84;20962;-56
2021/01/31 00:05:45;;;;;;;25.40;16.73;;;;;;;2.55;70.76;98286.73;1705902;82;21619;-57
2021/01/31 00:08:14;;;;;;;23.38;16.25;;;;;;;2.59;70.91;98254.27;1706420;84;21524;-57
2021/01/31 00:10:43;;;;;;;20.17;13.85;;;;;;;2.65;70.98;98244.34;1706501;84;20942;-57
2021/01/31 00:13:11;;;;;;;24.45;15.95;;;;;;;2.68;71.13;98250.52;1706443;84;21420;-57
2021/01/31 00:15:45;;;;;;;19.65;13.93;;;;;;;2.69;71.25;98233.36;1706406;84;20993;-57
2021/01/31 00:18:16;;;;;;;20.27;13.85;;;;;;;2.72;71.39;98232.81;1706468;84;21001;-57
2021/01/31 00:20:49;;;;;;;19.65;14.25;;;;;;;2.78;71.43;98235.77;1706500;84;20966;-56
2021/01/31 00:23:17;;;;;;;21.93;15.10;;;;;;;2.82;71.46;98245.72;1706500;84;21083;-57
2021/01/31 00:25:44;;;;;;;21.37;14.45;;;;;;;2.84;71.51;98255.67;1706474;84;21223;-56
2021/01/31 00:28:13;;;;;;;35.70;22.58;;;;;;;2.88;71.57;98290.05;1711499;83;20910;-56
2021/01/31 00:30:43;;;;;;;38.70;24.43;;;;;;;2.86;70.66;98300.52;1714309;83;20949;-56
2021/01/31 00:33:22;;;;;;;39.60;24.57;;;;;;;2.77;69.61;98295.92;1714345;83;21112;-56
2021/01/31 00:35:51;;;;;;;38.80;23.83;;;;;;;2.65;69.22;98292.67;1713741;83;21136;-56
2021/01/31 00:38:20;;;;;;;42.73;24.20;;;;;;;2.54;68.74;98301.23;1714450;83;22403;-61
2021/01/31 00:40:48;;;;;;;38.67;24.20;;;;;;;2.48;68.24;98293.66;1714263;82;20997;-57
2021/01/31 00:43:16;;;;;;;38.42;24.92;;;;;;;2.40;68.05;98304.92;1714297;83;20921;-57
2021/01/31 00:45:44;;;;;;;40.78;25.35;;;;;;;2.36;67.79;98332.54;1714310;83;20950;-56
2021/01/31 00:48:12;;;;;;;44.35;25.75;;;;;;;2.27;67.14;98339.73;1714431;83;20895;-55
2021/01/31 00:50:40;;;;;;;39.95;24.92;;;;;;;2.15;66.84;98357.91;1714294;83;21266;-56
2021/01/31 00:53:12;;;;;;;44.15;26.73;;;;;;;2.06;66.74;98363.48;1713606;83;21021;-58
2021/01/31 00:55:41;;;;;;;40.25;25.25;;;;;;;2.02;66.98;98365.86;1714380;83;21134;-56
2021/01/31 00:58:09;;;;;;;43.15;25.37;;;;;;;1.98;66.61;98360.76;1714419;83;21532;-55
2021/01/31 01:00:39;;;;;;;38.10;23.02;;;;;;;1.95;66.66;98362.60;1714317;83;21591;-56
2021/01/31 01:03:09;;;;;;;37.88;23.85;;;;;;;1.91;66.35;98370.87;1714080;83;21387;-56
2021/01/31 01:05:39;;;;;;;36.45;23.00;;;;;;;1.82;66.24;98395.20;1697178;83;21009;-56
2021/01/31 01:08:07;;;;;;;38.28;24.07;;;;;;;1.69;66.34;98399.67;1714258;83;21114;-57
2021/01/31 01:10:35;;;;;;;36.30;22.45;;;;;;;1.58;66.39;98414.05;1714276;83;21029;-56
2021/01/31 01:13:04;;;;;;;36.28;22.15;;;;;;;1.48;66.22;98432.98;1714430;83;21484;-56
2021/01/31 01:15:33;;;;;;;38.98;23.62;;;;;;;1.39;66.43;98429.13;1714342;83;21384;-56
2021/01/31 01:18:01;;;;;;;36.20;24.00;;;;;;;1.36;66.61;98422.11;1714354;83;21539;-55
2021/01/31 01:20:28;;;;;;;34.23;21.52;;;;;;;1.37;66.56;98409.83;1714306;83;21544;-56
2021/01/31 01:22:57;;;;;;;29.35;18.85;;;;;;;1.37;66.36;98407.14;1714252;82;21041;-61
2021/01/31 01:25:24;;;;;;;31.90;20.57;;;;;;;1.35;66.10;98397.19;1714409;83;21500;-57
2021/01/31 01:27:53;;;;;;;30.68;20.10;;;;;;;1.28;65.97;98405.97;1711174;83;21507;-57
2021/01/31 01:30:26;;;;;;;29.92;18.57;;;;;;;1.18;66.15;98412.02;1706381;84;21481;-56
2021/01/31 01:32:54;;;;;;;26.73;18.35;;;;;;;1.14;66.16;98424.30;1706443;84;20955;-57
2021/01/31 01:35:23;;;;;;;27.55;17.62;;;;;;;1.12;66.22;98440.35;1706359;82;20899;-57
2021/01/31 01:37:51;;;;;;;30.02;18.27;;;;;;;1.09;66.06;98447.53;1706446;83;21098;-56
2021/01/31 01:40:24;;;;;;;25.52;16.40;;;;;;;0.97;66.04;98455.17;1706362;82;21904;-56
2021/01/31 01:42:51;;;;;;;30.08;20.05;;;;;;;0.91;66.12;98456.17;1706334;84;21072;-57
2021/01/31 01:45:20;;;;;;;25.72;17.52;;;;;;;0.84;66.23;98463.56;1706460;84;20990;-55
2021/01/31 01:47:50;;;;;;;28.67;18.15;;;;;;;0.86;66.19;98472.14;1706305;84;21583;-56
2021/01/31 01:50:35;;;;;;;29.32;18.87;;;;;;;0.84;65.94;98470.25;1706539;84;21524;-56
2021/01/31 01:53:04;;;;;;;24.32;16.87;;;;;;;0.78;65.86;98475.27;1706437;84;21446;-55
2021/01/31 01:55:35;;;;;;;28.20;19.70;;;;;;;0.73;65.83;98487.23;1706398;84;21991;-56
2021/01/31 01:58:16;;;;;;;28.70;18.60;;;;;;;0.71;65.75;98489.33;1706423;84;20974;-56
2021/01/31 02:00:44;;;;;;;27.15;18.40;;;;;;;0.69;65.78;98498.14;1706404;84;20960;-56
2021/01/31 02:03:39;;;;;;;25.90;18.67;;;;;;;0.69;65.55;98506.17;1706409;83;20938;-56
2021/01/31 02:06:14;;;;;;;25.15;17.30;;;;;;;0.70;65.57;98512.61;1706449;84;21414;-56
2021/01/31 02:08:42;;;;;;;25.27;17.15;;;;;;;0.68;65.46;98529.45;1705831;84;20923;-56
2021/01/31 02:11:11;;;;;;;22.02;15.28;;;;;;;0.62;65.41;98537.66;1706409;84;21516;-56
2021/01/31 02:13:39;;;;;;;22.22;15.00;;;;;;;0.57;65.24;98542.94;1706382;84;21005;-55
2021/01/31 02:16:18;;;;;;;23.10;14.68;;;;;;;0.51;65.26;98552.76;1706389;84;21037;-56
2021/01/31 02:18:51;;;;;;;20.70;15.40;;;;;;;0.42;65.12;98563.04;1687202;84;21302;-55
2021/01/31 02:21:48;;;;;;;20.95;13.90;;;;;;;0.32;65.22;98572.23;1706395;84;21009;-56
2021/01/31 02:24:37;;;;;;;20.30;13.50;;;;;;;0.27;65.37;98582.04;1706434;84;21073;-55
2021/01/31 02:27:54;;;;;;;15.35;11.97;;;;;;;0.21;65.55;98589.98;1706374;84;21109;-55
2021/01/31 02:30:51;;;;;;;14.98;11.43;;;;;;;0.22;65.61;98601.48;1706398;84;20931;-56
2021/01/31 02:33:31;;;;;;;;;;;;;;;0.21;65.53;98599.86;1678991;84;21217;-55
2021/01/31 02:36:27;;;;;;;15.90;11.27;;;;;;;0.17;65.50;98601.39;1706468;84;20666;-56
2021/01/31 02:39:21;;;;;;;13.70;9.25;;;;;;;0.16;65.50;98610.47;1706538;84;20938;-55
2021/01/31 02:42:29;;;;;;;14.50;9.68;;;;;;;0.16;65.50;98621.98;1706347;84;22096;-55
2021/01/31 02:45:21;;;;;;;12.35;9.35;;;;;;;0.17;65.53;98631.62;1706420;83;21619;-55
2021/01/31 02:48:12;;;;;;;12.03;8.78;;;;;;;0.19;65.34;98630.03;1665852;84;21448;-55
2021/01/31 02:50:44;;;;;;;10.03;7.97;;;;;;;0.16;65.28;98639.89;1706330;84;21097;-56
2021/01/31 02:53:20;;;;;;;10.80;7.50;;;;;;;0.10;65.17;98643.00;1706449;84;21030;-56
2021/01/31 02:55:57;;;;;;;9.00;6.63;;;;;;;0.09;65.22;98651.23;1706336;84;21976;-56
2021/01/31 02:58:27;;;;;;;9.70;7.50;;;;;;;0.08;65.32;98654.44;1706485;82;21453;-55
2021/01/31 03:01:01;;;;;;;7.92;5.92;;;;;;;0.10;65.06;98663.55;1706366;84;21539;-55
2021/01/31 03:03:37;;;;;;;7.12;5.00;;;;;;;0.06;64.78;98666.44;1706498;83;21018;-55
2021/01/31 03:06:06;;;;;;;;;;;;;;;-0.03;64.89;98676.16;1708932;84;21085;-55
2021/01/31 03:08:37;;;;;;;5.53;4.40;;;;;;;-0.07;65.04;98681.69;1706337;84;20156;-55
2021/01/31 03:11:16;;;;;;;6.05;5.17;;;;;;;-0.11;65.10;98693.89;1706363;83;21061;-56
2021/01/31 03:14:06;;;;;;;5.97;4.95;;;;;;;-0.10;65.09;98696.04;1703891;84;21166;-55
2021/01/31 03:16:53;;;;;;;5.92;5.33;;;;;;;-0.09;65.18;98698.50;1706464;84;21089;-56
2021/01/31 03:19:48;;;;;;;7.17;5.97;;;;;;;-0.09;65.08;98706.52;1706486;84;21129;-56
2021/01/31 03:22:26;;;;;;;7.58;5.45;;;;;;;-0.10;65.14;98711.59;1706523;83;20923;-56
2021/01/31 03:25:08;;;;;;;5.15;4.45;;;;;;;-0.09;65.13;98723.90;1706547;84;21478;-55
2021/01/31 03:27:39;;;;;;;5.22;4.03;;;;;;;-0.07;65.14;98739.16;1706530;84;22132;-55
2021/01/31 03:30:10;;;;;;;5.10;4.15;;;;;;;-0.10;65.10;98745.00;1706591;84;21572;-55
2021/01/31 03:32:53;;;;;;;4.12;3.72;;;;;;;-0.12;65.11;98767.13;1706246;84;21037;-56
2021/01/31 03:35:37;;;;;;;5.13;4.27;;;;;;;-0.17;65.25;98766.20;1700487;84;21018;-55
2021/01/31 03:38:19;;;;;;;5.45;3.65;;;;;;;-0.19;65.48;98767.78;1686554;84;20926;-56
2021/01/31 03:40:49;;;;;;;4.35;3.35;;;;;;;-0.14;65.44;98773.77;1706489;82;21140;-55
2021/01/31 03:43:17;;;;;;;4.65;3.72;;;;;;;-0.13;65.39;98772.19;1686800;84;21191;-55
2021/01/31 03:46:24;;;;;;;4.30;3.40;;;;;;;-0.12;65.51;98777.82;1706509;84;20950;-56
2021/01/31 03:49:01;;;;;;;4.45;3.22;;;;;;;-0.13;65.38;98780.73;1706439;84;21567;-56
2021/01/31 03:51:29;;;;;;;;;;;;;;;-0.14;65.50;98789.81;1709064;84;21140;-55
2021/01/31 03:53:57;;;;;;;4.00;3.00;;;;;;;-0.14;65.60;98801.31;1686403;84;21223;-56
2021/01/31 03:56:31;;;;;;;3.08;2.72;;;;;;;-0.12;65.53;98804.55;1706412;84;21092;-56
2021/01/31 03:58:59;;;;;;;4.10;3.10;;;;;;;-0.10;65.53;98813.17;1706455;84;21117;-56
2021/01/31 04:01:28;;;;;;;4.30;3.47;;;;;;;-0.07;65.48;98823.91;1706473;84;20970;-56
2021/01/31 04:04:12;;;;;;;4.10;3.60;;;;;;;-0.09;65.40;98829.50;1706494;84;21499;-57
2021/01/31 04:06:40;;;;;;;3.65;3.00;;;;;;;-0.05;65.40;98833.34;1706504;84;21164;-57
2021/01/31 04:09:08;;;;;;;3.52;3.20;;;;;;;0.01;65.36;98848.97;1686491;84;21033;-57
2021/01/31 04:11:40;;;;;;;3.45;3.02;;;;;;;0.04;65.24;98853.02;1706500;84;21524;-57
2021/01/31 04:14:28;;;;;;;3.85;3.08;;;;;;;0.06;65.06;98856.30;1706470;84;21599;-58
2021/01/31 04:16:56;;;;;;;3.27;2.60;;;;;;;0.05;65.15;98866.68;1706495;84;21081;-57
2021/01/31 04:19:23;;;;;;;3.10;2.67;;;;;;;0.01;65.13;98872.23;1706456;84;21248;-57
2021/01/31 04:21:51;;;;;;;4.00;3.05;;;;;;;0.00;65.17;98886.13;1706405;83;21017;-58
2021/01/31 04:24:18;;;;;;;4.50;2.67;;;;;;;-0.01;65.22;98896.50;1706406;84;21151;-58
2021/01/31 04:26:46;;;;;;;3.62;3.00;;;;;;;0.01;65.33;98902.98;1706419;84;21090;-57
2021/01/31 04:29:14;;;;;;;4.10;3.47;;;;;;;0.02;65.26;98908.09;1713473;83;21052;-58
2021/01/31 04:31:42;;;;;;;3.27;2.92;;;;;;;0.03;65.24;98909.70;1720004;83;21565;-59
2021/01/31 04:34:09;;;;;;;3.40;3.00;;;;;;;0.10;65.12;98925.63;1719947;83;21063;-57
2021/01/31 04:36:36;;;;;;;3.98;2.33;;;;;;;0.09;65.01;98926.16;1719900;83;20946;-57
2021/01/31 04:39:05;;;;;;;3.47;2.70;;;;;;;0.10;64.94;98932.32;1719989;83;22149;-57
2021/01/31 04:41:36;;;;;;;2.83;2.62;;;;;;;0.09;64.88;98944.06;1720070;82;21476;-57
2021/01/31 04:44:06;;;;;;;3.43;3.13;;;;;;;0.13;64.83;98953.27;1720045;82;21377;-57
2021/01/31 04:47:14;;;;;;;3.90;3.20;;;;;;;0.13;64.79;98961.28;1719910;82;20965;-57
2021/01/31 04:50:24;;;;;;;3.17;2.58;;;;;;;0.13;64.78;98963.96;1719841;83;21059;-57
2021/01/31 04:53:12;;;;;;;2.67;2.47;;;;;;;0.15;64.69;98964.04;1719914;83;20934;-56
2021/01/31 04:55:51;;;;;;;2.90;2.60;;;;;;;0.15;64.45;98977.41;1720035;83;21072;-57
2021/01/31 04:58:30;;;;;;;3.22;2.87;;;;;;;0.16;64.45;98988.39;1719387;82;21455;-56
2021/01/31 05:01:09;;;;;;;4.15;3.02;;;;;;;0.17;64.25;98994.56;1719930;83;21183;-57
2021/01/31 05:03:58;;;;;;;3.98;3.02;;;;;;;0.15;64.17;99004.16;1714898;83;21194;-55
2021/01/31 05:06:29;;;;;;;3.40;2.22;;;;;;;0.14;64.21;99011.05;1709568;83;20949;-56
2021/01/31 05:08:56;;;;;;;3.98;3.65;;;;;;;0.15;64.18;99004.66;1719967;82;20941;-55
2021/01/31 05:11:30;;;;;;;3.80;3.15;;;;;;;0.15;64.06;99012.67;1719964;83;21575;-55
2021/01/31 05:14:07;;;;;;;3.63;2.97;;;;;;;0.13;64.04;99008.09;1719893;83;21132;-57
2021/01/31 05:16:34;;;;;;;4.72;3.33;;;;;;;0.13;64.03;99022.27;1688132;83;21094;-56
2021/01/31 05:19:05;;;;;;;3.42;3.12;;;;;;;0.12;64.05;99031.88;1719914;83;20913;-57
2021/01/31 05:21:34;;;;;;;3.55;2.95;;;;;;;0.12;64.12;99030.54;1720011;83;21084;-56
2021/01/31 05:24:10;;;;;;;3.45;3.15;;;;;;;0.14;64.10;99040.47;1720017;82;22329;-56
2021/01/31 05:26:41;;;;;;;3.70;3.40;;;;;;;0.15;63.98;99041.60;1719890;83;21614;-56
2021/01/31 05:29:20;;;;;;;4.70;3.40;;;;;;;0.14;64.00;99045.83;1714989;82;21552;-56
2021/01/31 05:32:05;;;;;;;3.90;3.50;;;;;;;0.11;63.93;99051.13;1706406;84;21041;-56
2021/01/31 05:34:43;;;;;;;3.92;3.08;;;;;;;0.10;64.11;99062.03;1706434;83;21049;-56
2021/01/31 05:37:24;;;;;;;5.47;3.60;;;;;;;0.11;64.19;99058.33;1706487;83;22290;-56
2021/01/31 05:40:04;;;;;;;4.47;3.30;;;;;;;0.13;64.26;99062.92;1706329;82;21152;-57
2021/01/31 05:42:37;;;;;;;3.50;3.20;;;;;;;0.16;64.24;99070.50;1688103;84;21480;-56
2021/01/31 05:45:10;;;;;;;4.10;3.70;;;;;;;0.16;64.24;99070.50;1706339;83;21496;-57
2021/01/31 05:47:41;;;;;;;4.30;3.73;;;;;;;0.18;64.23;99081.25;1706365;82;21026;-56
2021/01/31 05:50:37;;;;;;;4.53;3.47;;;;;;;0.20;64.22;99078.34;1706518;82;22130;-55
2021/01/31 05:53:36;;;;;;;3.58;3.08;;;;;;;0.25;64.15;99084.66;1706590;84;21556;-56
2021/01/31 05:56:27;;;;;;;5.77;3.37;;;;;;;0.24;64.02;99088.88;1706385;84;20978;-55
2021/01/31 05:59:10;;;;;;;4.83;3.87;;;;;;;0.22;63.97;99090.98;1706398;84;21184;-57
2021/01/31 06:02:00;;;;;;;5.50;4.17;;;;;;;0.27;64.93;99098.33;1706514;83;21540;-61
2021/01/31 06:04:29;;;;;;;4.15;3.75;;;;;;;0.42;64.06;99098.71;1706421;84;21414;-59
2021/01/31 06:07:10;;;;;;;6.03;4.22;;;;;;;0.43;63.65;99104.35;1706336;84;21172;-59
2021/01/31 06:09:48;;;;;;;6.37;4.22;;;;;;;0.42;63.49;99104.88;1706407;83;21009;-59
2021/01/31 06:12:25;;;;;;;5.40;3.83;;;;;;;0.43;63.29;99109.70;1706370;84;20942;-59
2021/01/31 06:15:04;;;;;;;5.77;4.43;;;;;;;0.42;63.23;99111.56;1706420;83;21136;-59
2021/01/31 06:17:32;;;;;;;7.60;4.70;;;;;;;0.41;63.19;99113.95;1706393;84;21377;-58
2021/01/31 06:20:14;;;;;;;5.15;4.40;;;;;;;0.41;62.99;99121.98;1706365;82;21572;-58
2021/01/31 06:22:48;;;;;;;5.63;3.93;;;;;;;0.41;62.86;99126.00;1705747;83;21096;-59
2021/01/31 06:25:36;;;;;;;7.57;4.77;;;;;;;0.41;62.68;99121.17;1706155;84;20907;-58
2021/01/31 06:28:18;;;;;;;8.47;5.53;;;;;;;0.38;62.70;99129.12;1705424;84;20935;-58
2021/01/31 06:31:23;;;;;;;7.12;5.22;;;;;;;0.38;62.65;99139.81;1718453;82;21451;-59
2021/01/31 06:33:51;;;;;;;7.60;5.30;;;;;;;0.38;62.68;99137.14;1719832;83;21001;-59
2021/01/31 06:36:30;;;;;;;7.47;5.53;;;;;;;0.36;62.74;99149.95;1719480;83;21571;-59
2021/01/31 06:39:18;;;;;;;7.40;5.97;;;;;;;0.30;62.88;99146.00;1690986;84;21186;-57
2021/01/31 06:41:52;;;;;;;7.50;5.37;;;;;;;0.29;62.99;99163.92;1675789;84;21223;-62
2021/01/31 06:44:49;;;;;;;9.47;5.93;;;;;;;0.32;63.07;99162.14;1690968;84;21396;-59
2021/01/31 06:47:47;;;;;;;7.00;5.47;;;;;;;0.33;63.16;99169.12;1718238;83;21512;-57
2021/01/31 06:50:49;;;;;;;8.60;6.23;;;;;;;0.37;62.99;99176.17;1690837;84;21154;-61
2021/01/31 06:53:40;;;;;;;9.67;6.07;;;;;;;0.34;62.95;99181.45;1709200;83;20957;-59
2021/01/31 06:56:44;;;;;;;7.90;5.67;;;;;;;0.36;63.11;99182.58;1719121;83;21092;-58
2021/01/31 06:59:41;;;;;;;8.80;5.97;;;;;;;0.40;63.02;99191.23;1718961;83;21421;-57
2021/01/31 07:02:39;;;;;;;8.73;6.33;;;;;;;0.43;62.94;99194.81;1718926;83;21155;-58
2021/01/31 07:05:44;;;;;;;9.07;5.80;;;;;;;0.46;62.89;99197.04;1718327;83;21171;-57
2021/01/31 07:08:30;;;;;;;8.73;5.93;;;;;;;0.52;62.62;99199.33;1717777;83;21199;-56
2021/01/31 07:11:33;;;;;;;7.40;5.50;;;;;;;0.52;62.40;99203.34;1690528;83;21209;-57
2021/01/31 07:14:09;;;;;;;7.90;5.63;;;;;;;0.48;62.42;99204.83;1698187;82;21225;-61
2021/01/31 07:17:16;;;;;;;7.87;5.50;;;;;;;0.43;62.48;99221.56;1718843;83;21214;-57
2021/01/31 07:19:58;;;;;;;8.30;5.58;;;;;;;0.44;62.55;99216.50;1718937;83;21185;-57
2021/01/31 07:22:35;;;;;;;7.57;5.77;;;;;;;0.44;62.61;99219.70;1692545;82;21029;-58
2021/01/31 07:25:19;;;;;;;8.43;5.50;;;;;;;0.46;62.60;99228.34;1693999;83;21092;-58
2021/01/31 07:27:57;;;;;;;8.30;6.43;;;;;;;0.45;62.69;99240.06;1720022;83;21364;-56
2021/01/31 07:31:12;;;;;;;9.13;6.97;;;;;;;0.47;62.90;99241.48;1719845;83;20946;-57
2021/01/31 07:33:58;;;;;;;10.97;6.90;;;;;;;0.53;62.85;99241.63;1719948;83;21009;-58
2021/01/31 07:37:08;;;;;;;10.23;6.75;;;;;;;0.56;62.94;99251.37;1692156;83;21389;-58
2021/01/31 07:39:47;;;;;;;12.05;7.92;;;;;;;0.59;62.87;99254.09;1719983;83;21210;-57
2021/01/31 07:42:15;;;;;;;10.00;6.72;;;;;;;0.65;62.91;99260.69;1703104;83;21209;-58
2021/01/31 07:44:44;;;;;;;11.18;6.80;;;;;;;0.73;62.89;99264.39;1719714;83;21240;-57
2021/01/31 07:47:12;;;;;;;9.68;6.45;;;;;;;0.82;62.65;99275.61;1693723;83;21127;-60
2021/01/31 07:50:00;;;;;;;10.72;7.95;;;;;;;0.87;62.69;99265.56;1719910;83;21103;-60
2021/01/31 07:52:29;;;;;;;12.73;8.23;;;;;;;0.92;62.75;99272.39;1720028;83;21089;-62
2021/01/31 07:55:32;;;;;;;12.60;8.23;;;;;;;0.98;62.50;99276.30;1719989;83;21439;-58
2021/01/31 07:58:21;;;;;;;10.50;7.35;;;;;;;0.97;62.51;99281.89;1719803;83;21017;-59
2021/01/31 08:00:52;;;;;;;9.53;6.83;;;;;;;0.98;62.50;99292.37;1719799;82;21171;-59
2021/01/31 08:03:35;;;;;;;10.72;7.87;;;;;;;1.01;62.65;99293.76;1719947;83;21128;-63
2021/01/31 08:06:07;;;;;;;12.55;9.35;;;;;;;1.08;62.47;99301.19;1720015;83;20970;-62
2021/01/31 08:08:50;;;;;;;13.50;8.43;;;;;;;1.09;62.27;99311.38;1719922;82;21204;-62
2021/01/31 08:11:30;;;;;;;12.05;8.05;;;;;;;1.07;62.38;99316.16;1719828;83;21191;-57
2021/01/31 08:14:00;;;;;;;11.10;7.97;;;;;;;1.09;62.30;99322.10;1719863;82;21183;-57
2021/01/31 08:16:48;;;;;;;10.65;8.08;;;;;;;1.09;62.17;99325.59;1693798;83;21614;-59
2021/01/31 08:19:23;;;;;;;13.05;8.28;;;;;;;1.12;62.13;99333.19;1719890;83;21214;-58
2021/01/31 08:22:13;;;;;;;12.00;8.00;;;;;;;1.16;62.05;99340.22;1719960;83;21370;-57
2021/01/31 08:25:10;;;;;;;13.20;8.28;;;;;;;1.19;61.90;99341.93;1719911;83;21029;-57
2021/01/31 08:27:45;;;;;;;10.98;7.28;;;;;;;1.24;61.86;99354.65;1719952;83;21008;-57
2021/01/31 08:30:34;;;;;;;10.15;7.20;;;;;;;1.25;61.46;99358.95;1714066;82;21156;-58
2021/01/31 08:33:13;;;;;;;11.38;7.15;;;;;;;1.25;61.27;99368.33;1706555;84;21413;-57
2021/01/31 08:35:47;;;;;;;9.88;6.75;;;;;;;1.21;60.98;99377.86;1705788;84;21340;-59
2021/01/31 08:41:29;;;;;;;7.60;5.47;;;;;;;1.15;60.00;99386.30;1751894;79;22758;-61
2021/01/31 08:44:14;;;;;;;9.55;6.33;;;;;;;1.13;60.00;99399.64;1709844;82;20905;-59
2021/01/31 08:47:01;;;;;;;6.42;4.92;;;;;;;1.18;59.88;99403.80;1709736;82;21397;-60
2021/01/31 08:49:28;;;;;;;;;;;;;;;1.23;59.83;99406.61;1716528;83;21614;-59
2021/01/31 08:52:04;;;;;;;7.50;5.00;;;;;;;1.26;59.96;99410.16;1716301;83;20136;-59
2021/01/31 08:54:31;;;;;;;7.30;4.78;;;;;;;1.30;59.74;99402.78;1713813;83;21020;-58
2021/01/31 08:57:05;;;;;;;6.37;4.95;;;;;;;1.34;59.13;99404.48;1686887;85;21059;-59
2021/01/31 08:59:46;;;;;;;7.53;5.45;;;;;;;1.31;59.05;99414.31;1687107;83;21352;-59
2021/01/31 09:02:22;;;;;;;10.20;5.03;;;;;;;1.33;59.22;99409.56;1686938;83;20992;-59
2021/01/31 09:04:54;;;;;;;6.55;4.00;;;;;;;1.41;59.14;99420.47;1687129;83;20989;-59
2021/01/31 09:07:25;;;;;;;5.67;4.40;;;;;;;1.43;58.22;99424.57;1687019;85;21126;-59
2021/01/31 09:10:08;;;;;;;6.47;4.10;;;;;;;1.45;58.07;99429.17;1687004;85;21135;-57
2021/01/31 09:12:36;;;;;;;6.10;4.20;;;;;;;1.47;58.02;99436.48;1686647;85;21293;-56
2021/01/31 09:15:13;;;;;;;6.28;4.00;;;;;;;1.50;57.46;99430.64;1686999;83;21232;-57
2021/01/31 09:17:42;;;;;;;5.12;3.47;;;;;;;1.56;57.51;99435.09;1687639;84;21009;-57
2021/01/31 09:20:26;;;;;;;6.67;4.12;;;;;;;1.66;57.49;99435.06;1687616;83;21035;-57
2021/01/31 09:22:59;;;;;;;4.40;3.73;;;;;;;1.71;56.75;99429.30;1660879;85;20962;-59
2021/01/31 09:25:26;;;;;;;7.35;4.00;;;;;;;1.80;56.66;99437.31;1660922;85;21389;-59
2021/01/31 09:28:20;;;;;;;6.90;4.00;;;;;;;1.88;56.77;99432.16;1660097;85;21579;-61
2021/01/31 09:30:49;;;;;;;6.45;3.85;;;;;;;1.97;56.86;99437.45;1668326;85;21507;-60
2021/01/31 09:33:37;;;;;;;5.25;3.58;;;;;;;2.04;55.66;99439.52;1687659;83;20976;-60
2021/01/31 09:36:23;;;;;;;5.10;3.40;;;;;;;2.05;55.55;99442.50;1687717;83;21567;-57
2021/01/31 09:38:52;;;;;;;5.10;3.33;;;;;;;2.04;54.99;99438.70;1687650;85;21364;-57
2021/01/31 09:41:22;;;;;;;5.28;3.40;;;;;;;1.99;54.50;99442.08;1674337;83;21475;-57
2021/01/31 09:43:54;;;;;;;4.58;2.75;;;;;;;1.94;54.66;99445.98;1672955;85;20969;-62
2021/01/31 09:46:24;;;;;;;5.58;3.75;;;;;;;1.93;54.81;99446.22;1672888;85;21144;-56
2021/01/31 09:49:03;;;;;;;4.03;2.87;;;;;;;1.95;54.87;99453.50;1672974;84;21098;-56
2021/01/31 09:51:31;;;;;;;5.50;3.10;;;;;;;1.99;54.89;99456.84;1672715;84;22271;-56
2021/01/31 09:54:18;;;;;;;4.08;2.80;;;;;;;2.03;54.87;99467.41;1672331;84;21966;-57
2021/01/31 09:56:49;;;;;;;36.63;22.87;;;;;;;2.07;54.53;99463.72;1672487;84;21591;-57
2021/01/31 09:59:33;;;;;;;8.93;6.03;;;;;;;2.11;54.42;99474.29;1672383;85;21124;-58
2021/01/31 10:02:21;;;;;;;5.47;3.37;;;;;;;2.08;54.12;99467.53;1672519;84;21563;-59
2021/01/31 10:04:58;;;;;;;4.55;3.02;;;;;;;2.10;54.12;99482.58;1672492;84;21260;-57
2021/01/31 10:07:41;;;;;;;4.95;2.55;;;;;;;2.07;54.00;99488.68;1672374;85;21527;-57
2021/01/31 10:10:37;;;;;;;5.25;2.72;;;;;;;2.03;53.80;99487.53;1672275;85;21060;-58
2021/01/31 10:13:27;;;;;;;3.35;2.37;;;;;;;1.95;53.90;99494.56;1671820;85;21005;-56
2021/01/31 10:16:02;;;;;;;4.92;2.95;;;;;;;1.98;53.72;99495.45;1671405;84;21187;-57
2021/01/31 10:18:35;;;;;;;;;;;;;;;2.00;53.26;99501.92;1674828;85;21457;-56
2021/01/31 10:21:23;;;;;;;3.70;2.27;;;;;;;2.00;53.48;99504.61;1672299;85;20838;-56
2021/01/31 10:24:11;;;;;;;9.18;6.15;;;;;;;2.02;53.93;99508.67;1653912;84;21084;-58
2021/01/31 10:26:40;;;;;;;22.55;15.00;;;;;;;2.11;54.00;99511.05;1672327;84;20965;-57
2021/01/31 10:29:08;;;;;;;6.15;3.45;;;;;;;2.17;53.61;99506.09;1672467;84;21495;-56
2021/01/31 10:31:38;;;;;;;3.52;2.85;;;;;;;2.21;53.27;99515.32;1672442;85;22887;-57
2021/01/31 10:34:10;;;;;;;4.67;2.80;;;;;;;2.27;53.23;99508.50;1672483;84;21524;-57
2021/01/31 10:36:43;;;;;;;4.67;2.60;;;;;;;2.38;53.19;99510.08;1672498;85;20965;-58
2021/01/31 10:39:16;;;;;;;4.58;2.50;;;;;;;2.44;52.73;99519.39;1672111;84;21080;-57
2021/01/31 10:44:39;;;;;;;4.30;2.70;;;;;;;2.55;52.46;99532.53;1776973;79;22759;-56
2021/01/31 10:47:08;;;;;;;2.95;1.87;;;;;;;2.52;51.99;99533.80;1749731;82;20890;-57
2021/01/31 10:49:35;;;;;;;3.05;2.12;;;;;;;2.53;51.66;99535.95;1749626;82;21213;-58
2021/01/31 10:52:04;;;;;;;3.67;2.27;;;;;;;2.54;51.89;99540.30;1749582;82;20953;-57
2021/01/31 10:54:31;;;;;;;3.35;1.95;;;;;;;2.58;51.69;99543.61;1749628;82;20997;-58
2021/01/31 10:56:58;;;;;;;2.47;1.60;;;;;;;2.60;51.13;99547.42;1749659;82;20950;-58
2021/01/31 10:59:26;;;;;;;2.67;1.87;;;;;;;2.58;50.73;99546.30;1749576;82;20941;-58
2021/01/31 11:01:55;;;;;;;3.62;1.95;;;;;;;2.56;50.34;99550.27;1749579;82;21192;-57
2021/01/31 11:04:22;;;;;;;2.70;1.65;;;;;;;2.52;50.84;99547.23;1749542;80;21910;-56
2021/01/31 11:06:50;;;;;;;3.58;1.62;;;;;;;2.59;51.10;99558.69;1749572;82;20938;-57
2021/01/31 11:09:17;;;;;;;2.62;2.08;;;;;;;2.72;50.54;99551.45;1749544;80;20961;-56
2021/01/31 11:11:46;;;;;;;2.47;1.70;;;;;;;2.82;50.12;99555.19;1749633;82;20933;-56
2021/01/31 11:14:14;;;;;;;3.83;2.00;;;;;;;2.99;50.00;99563.88;1749628;81;21205;-57
2021/01/31 11:16:42;;;;;;;3.42;1.82;;;;;;;3.12;49.81;99564.99;1749459;81;21012;-63
2021/01/31 11:19:09;;;;;;;4.80;2.60;;;;;;;3.23;49.40;99568.72;1749575;82;20945;-62
2021/01/31 11:21:37;;;;;;;3.17;2.08;;;;;;;3.25;49.14;99567.97;1749537;82;20925;-61
2021/01/31 11:24:06;;;;;;;5.00;2.40;;;;;;;3.42;48.87;99566.17;1749583;82;20958;-57
2021/01/31 11:26:33;;;;;;;4.95;1.90;;;;;;;3.76;48.75;99569.02;1749620;82;21377;-58
2021/01/31 11:29:01;;;;;;;4.67;2.67;;;;;;;4.04;47.58;99570.34;1749561;82;21967;-57
2021/01/31 11:31:29;;;;;;;7.22;2.50;;;;;;;4.36;47.64;99572.55;1749455;82;21528;-58
2021/01/31 11:33:57;;;;;;;3.10;2.35;;;;;;;4.57;47.62;99563.73;1749552;82;21071;-58
2021/01/31 11:36:25;;;;;;;4.67;2.72;;;;;;;4.97;46.89;99566.78;1749628;82;21155;-60
2021/01/31 11:38:52;;;;;;;3.85;3.30;;;;;;;5.29;45.83;99564.80;1748901;82;21275;-58
2021/01/31 11:41:20;;;;;;;4.50;2.75;;;;;;;5.58;45.68;99554.66;1722729;82;21143;-58
2021/01/31 11:43:48;;;;;;;4.90;2.60;;;;;;;6.10;44.76;99564.97;1655223;84;21036;-61
2021/01/31 11:46:16;;;;;;;4.25;3.00;;;;;;;6.10;44.76;99564.97;1644447;86;21147;-59
2021/01/31 11:48:43;;;;;;;3.72;2.72;;;;;;;6.40;43.54;99564.45;1644435;87;21273;-61
2021/01/31 11:51:11;;;;;;;4.22;2.87;;;;;;;6.67;43.62;99565.21;1706052;84;22826;-60
2021/01/31 11:53:39;;;;;;;5.70;3.35;;;;;;;6.94;42.38;99564.32;1706076;84;21608;-58
2021/01/31 11:56:06;;;;;;;4.22;3.27;;;;;;;6.96;42.35;99557.59;1705420;84;21161;-59
2021/01/31 11:58:35;;;;;;;6.62;4.40;;;;;;;6.90;41.65;99563.23;1705758;83;21176;-60
2021/01/31 12:01:05;;;;;;;6.92;4.80;;;;;;;6.97;41.88;99560.56;1705927;84;21049;-60
2021/01/31 12:03:33;;;;;;;4.55;3.50;;;;;;;7.12;41.10;99567.97;1705923;84;22369;-60
2021/01/31 12:06:00;;;;;;;4.45;3.60;;;;;;;7.31;41.10;99572.41;1706034;84;21554;-60
2021/01/31 12:08:30;;;;;;;6.15;3.60;;;;;;;7.50;40.28;99568.19;1705704;84;21030;-58
2021/01/31 12:10:58;;;;;;;4.58;2.98;;;;;;;7.72;39.97;99559.87;1706020;84;21195;-57
2021/01/31 12:13:25;;;;;;;4.67;2.98;;;;;;;7.96;39.20;99566.19;1706264;84;21149;-58
2021/01/31 12:15:53;;;;;;;4.50;3.55;;;;;;;8.12;38.73;99569.20;1706232;84;21274;-61
2021/01/31 12:18:21;;;;;;;4.42;2.98;;;;;;;8.28;38.34;99578.17;1706257;83;21191;-61
2021/01/31 12:20:49;;;;;;;4.50;2.60;;;;;;;8.24;37.51;99571.11;1708492;83;20945;-61
2021/01/31 12:23:18;;;;;;;4.03;2.47;;;;;;;8.20;37.55;99593.05;1706009;84;21591;-60
2021/01/31 12:25:47;;;;;;;3.83;2.52;;;;;;;8.23;37.57;99597.95;1705824;84;21191;-60